createdAt,value
2022-08-09T00:00:00.761Z,102605.78
2022-08-09T00:02:37.147Z,102609.38
2022-08-09T00:06:19.204Z,102605.00
2022-08-09T00:07:56.479Z,102604.16
2022-08-09T00:10:27.853Z,102596.25
2022-08-09T00:12:54.589Z,102606.13
2022-08-09T00:15:46.080Z,102610.66
2022-08-09T00:18:11.539Z,102608.13
2022-08-09T00:20:42.136Z,102616.16
2022-08-09T00:23:57.490Z,102617.97
2022-08-09T00:26:04.893Z,102616.22
2022-08-09T00:28:31.957Z,102622.53
2022-08-09T00:31:02.405Z,102619.16
2022-08-09T00:33:54.122Z,102614.81
2022-08-09T00:36:22.279Z,102614.03
2022-08-09T00:38:54.358Z,102625.56
2022-08-09T00:44:14.086Z,102634.47
2022-08-09T00:44:19.712Z,102635.38
2022-08-09T00:47:04.978Z,102628.41
2022-08-09T00:49:36.853Z,102633.81
2022-08-09T00:52:16.055Z,102637.44
2022-08-09T00:54:45.429Z,102626.00
2022-08-09T00:57:12.403Z,102628.75
2022-08-09T00:59:47.160Z,102626.16
2022-08-09T01:02:21.768Z,102627.91
2022-08-09T01:05:13.941Z,102622.78
2022-08-09T01:08:00.293Z,102623.63
2022-08-09T01:10:56.196Z,102622.09
2022-08-09T01:13:53.404Z,102624.00
2022-08-09T01:16:26.730Z,102626.66
2022-08-09T01:19:04.715Z,102624.94
2022-08-09T01:21:50.842Z,102618.84
2022-08-09T01:24:40.146Z,102619.75
2022-08-09T01:27:12.542Z,102621.53
2022-08-09T01:29:55.698Z,102621.53
2022-08-09T01:32:34.328Z,102618.09
2022-08-09T01:35:28.594Z,102626.13
2022-08-09T01:38:08.478Z,102619.09
2022-08-09T01:40:42.470Z,102620.06
2022-08-09T01:43:10.777Z,102618.38
2022-08-09T01:45:46.454Z,102620.25
2022-08-09T01:48:19.433Z,102618.63
2022-08-09T01:50:55.157Z,102624.84
2022-08-09T01:53:23.765Z,102622.22
2022-08-09T01:55:56.744Z,102615.19
2022-08-09T01:58:26.144Z,102624.06
2022-08-09T02:00:57.281Z,102619.72
2022-08-09T02:03:25.462Z,102625.09
2022-08-09T02:06:06.285Z,102629.59
2022-08-09T02:08:57.318Z,102629.75
2022-08-09T02:11:42.204Z,102627.13
2022-08-09T02:14:14.989Z,102629.88
2022-08-09T02:16:59.948Z,102623.78
2022-08-09T02:19:43.342Z,102624.69
2022-08-09T02:22:19.091Z,102628.34
2022-08-09T02:24:58.395Z,102628.38
2022-08-09T02:27:43.531Z,102634.66
2022-08-09T02:30:17.979Z,102639.09
2022-08-09T02:32:47.385Z,102625.97
2022-08-09T02:35:26.074Z,102630.41
2022-08-09T02:38:09.545Z,102633.09
2022-08-09T02:40:38.884Z,102640.25
2022-08-09T02:43:08.610Z,102625.31
2022-08-09T02:45:44.719Z,102627.19
2022-08-09T02:48:29.721Z,102633.41
2022-08-09T02:51:02.402Z,102631.63
2022-08-09T02:53:43.060Z,102630.81
2022-08-09T02:56:20.932Z,102626.34
2022-08-09T02:58:50.217Z,102625.53
2022-08-09T03:01:21.788Z,102632.59
2022-08-09T03:04:13.310Z,102633.50
2022-08-09T03:06:45.465Z,102635.34
2022-08-09T03:09:13.842Z,102629.25
2022-08-09T03:12:09.768Z,102628.38
2022-08-09T03:14:31.719Z,102628.38
2022-08-09T03:17:01.854Z,102629.34
2022-08-09T03:19:52.769Z,102632.97
2022-08-09T03:22:30.478Z,102633.00
2022-08-09T03:25:19.849Z,102641.91
2022-08-09T03:27:50.689Z,102636.66
2022-08-09T03:30:29.683Z,102634.09
2022-08-09T03:33:12.678Z,102642.91
2022-08-09T03:36:11.478Z,102640.28
2022-08-09T03:38:28.975Z,102642.94
2022-08-09T03:40:57.787Z,102645.66
2022-08-09T03:43:24.271Z,102639.56
2022-08-09T03:46:04.208Z,102646.69
2022-08-09T03:48:42.920Z,102646.69
2022-08-09T03:51:44.031Z,102638.75
2022-08-09T03:54:06.191Z,102642.28
2022-08-09T03:56:41.378Z,102649.34
2022-08-09T03:59:13.526Z,102641.47
2022-08-09T04:01:44.573Z,102643.25
2022-08-09T04:04:14.730Z,102648.53
2022-08-09T04:06:41.465Z,102645.88
2022-08-09T04:09:47.410Z,102641.41
2022-08-09T04:12:12.024Z,102650.25
2022-08-09T04:15:01.694Z,102648.47
2022-08-09T04:17:29.783Z,102647.63
2022-08-09T04:19:56.557Z,102653.81
2022-08-09T04:22:23.527Z,102654.69
2022-08-09T04:24:50.126Z,102652.91
2022-08-09T04:27:17.159Z,102649.41
2022-08-09T04:29:49.954Z,102644.09
2022-08-09T04:32:17.167Z,102643.25
2022-08-09T04:35:01.360Z,102644.91
2022-08-09T04:37:42.120Z,102650.25
2022-08-09T04:40:19.193Z,102648.47
2022-08-09T04:42:55.784Z,102649.41
2022-08-09T04:45:23.562Z,102651.13
2022-08-09T04:48:01.195Z,102653.78
2022-08-09T04:50:34.959Z,102657.28
2022-08-09T04:53:13.024Z,102666.06
2022-08-09T04:55:58.126Z,102665.16
2022-08-09T04:58:28.999Z,102663.34
2022-08-09T05:00:56.840Z,102665.06
2022-08-09T05:03:40.234Z,102661.56
2022-08-09T05:06:27.346Z,102662.41
2022-08-09T05:09:00.474Z,102673.75
2022-08-09T05:11:30.614Z,102670.19
2022-08-09T05:14:02.485Z,102675.41
2022-08-09T05:16:58.526Z,102679.75
2022-08-09T05:19:26.119Z,102684.03
2022-08-09T05:21:58.944Z,102684.91
2022-08-09T05:24:26.977Z,102689.28
2022-08-09T05:26:54.514Z,102690.13
2022-08-09T05:29:22.697Z,102696.25
2022-08-09T05:31:57.521Z,102695.31
2022-08-09T05:34:30.578Z,102693.44
2022-08-09T05:37:01.737Z,102703.09
2022-08-09T05:39:35.815Z,102699.47
2022-08-09T05:42:04.596Z,102697.63
2022-08-09T05:44:32.751Z,102703.69
2022-08-09T05:47:00.089Z,102702.72
2022-08-09T05:50:16.889Z,102702.69
2022-08-09T05:52:13.268Z,102700.78
2022-08-09T05:54:40.333Z,102694.59
2022-08-09T05:57:07.477Z,102707.75
2022-08-09T05:59:39.418Z,102712.97
2022-08-09T06:02:09.074Z,102715.56
2022-08-09T06:04:36.775Z,102715.47
2022-08-09T06:07:11.020Z,102720.59
2022-08-09T06:10:02.123Z,102723.13
2022-08-09T06:12:30.641Z,102724.75
2022-08-09T06:15:01.009Z,102731.72
2022-08-09T06:17:39.888Z,102725.41
2022-08-09T06:20:08.016Z,102725.28
2022-08-09T06:22:35.033Z,102728.78
2022-08-09T06:25:02.395Z,102722.47
2022-08-09T06:27:42.500Z,102725.94
2022-08-09T06:30:10.959Z,102730.19
2022-08-09T06:32:59.481Z,102731.84
2022-08-09T06:35:55.814Z,102720.16
2022-08-09T06:38:15.823Z,102728.84
2022-08-09T06:40:42.727Z,102734.03
2022-08-09T06:43:10.663Z,102736.56
2022-08-09T06:46:07.478Z,102741.78
2022-08-09T06:48:30.585Z,102741.53
2022-08-09T06:50:59.815Z,102745.06
2022-08-09T06:53:26.699Z,102742.28
2022-08-09T06:55:53.352Z,102747.41
2022-08-09T07:00:47.261Z,102746.47
2022-08-09T07:01:06.535Z,102749.75
2022-08-09T07:03:39.710Z,102751.53
2022-08-09T07:06:18.826Z,102744.25
2022-08-09T07:08:46.762Z,102750.28
2022-08-09T07:11:23.542Z,102743.94
2022-08-09T07:14:05.530Z,102753.50
2022-08-09T07:16:42.430Z,102747.06
2022-08-09T07:19:23.209Z,102744.22
2022-08-09T07:21:57.071Z,102747.63
2022-08-09T07:24:31.368Z,102753.66
2022-08-09T07:27:01.285Z,102751.72
2022-08-09T07:29:37.739Z,102749.81
2022-08-09T07:32:05.858Z,102753.25
2022-08-09T07:34:32.352Z,102745.16
2022-08-09T07:37:02.775Z,102753.88
2022-08-09T07:39:40.969Z,102746.59
2022-08-09T07:42:08.741Z,102745.59
2022-08-09T07:44:53.322Z,102746.31
2022-08-09T07:47:23.203Z,102748.72
2022-08-09T07:50:04.589Z,102747.69
2022-08-09T07:52:35.880Z,102741.19
2022-08-09T07:55:04.032Z,102750.72
2022-08-09T07:57:36.449Z,102749.66
2022-08-09T08:00:08.797Z,102755.72
2022-08-09T08:02:42.976Z,102757.28
2022-08-09T08:05:18.794Z,102761.63
2022-08-09T08:08:44.262Z,102757.94
2022-08-09T08:10:34.702Z,102767.41
2022-08-09T08:13:03.901Z,102765.50
2022-08-09T08:15:35.526Z,102755.50
2022-08-09T08:18:04.438Z,102758.81
2022-08-09T08:20:32.638Z,102759.44
2022-08-09T08:23:06.630Z,102749.38
2022-08-09T08:25:46.416Z,102758.78
2022-08-09T08:28:18.413Z,102755.00
2022-08-09T08:30:53.228Z,102751.06
2022-08-09T08:33:23.959Z,102756.59
2022-08-09T08:36:00.115Z,102749.66
2022-08-09T08:38:29.432Z,102751.50
2022-08-09T08:40:57.327Z,102752.81
2022-08-09T08:43:24.598Z,102758.41
2022-08-09T08:46:09.908Z,102755.28
2022-08-09T08:48:51.780Z,102763.44
2022-08-09T08:51:21.300Z,102757.00
2022-08-09T08:54:03.206Z,102756.91
2022-08-09T08:56:37.644Z,102759.56
2022-08-09T08:59:19.764Z,102759.78
2022-08-09T09:01:53.455Z,102757.84
2022-08-09T09:04:27.667Z,102753.16
2022-08-09T09:06:57.915Z,102753.00
2022-08-09T09:09:58.101Z,102753.44
2022-08-09T09:12:17.467Z,102747.38
2022-08-09T09:14:45.156Z,102752.38
2022-08-09T09:17:12.999Z,102753.06
2022-08-09T09:19:43.883Z,102752.88
2022-08-09T09:22:16.261Z,102747.09
2022-08-09T09:24:43.535Z,102749.38
2022-08-09T09:28:03.084Z,102748.22
2022-08-09T09:30:20.145Z,102753.00
2022-08-09T09:33:15.498Z,102755.47
2022-08-09T09:36:02.071Z,102752.56
2022-08-09T09:38:56.679Z,102748.81
2022-08-09T09:41:23.949Z,102756.84
2022-08-09T09:44:12.373Z,102746.28
2022-08-09T09:46:43.059Z,102741.75
2022-08-09T09:49:32.202Z,102739.19
2022-08-09T09:52:33.725Z,102745.28
2022-08-09T09:55:24.019Z,102743.22
2022-08-09T09:58:16.734Z,102748.09
2022-08-09T10:00:59.071Z,102747.97
2022-08-09T10:03:56.245Z,102748.38
2022-08-09T10:06:38.562Z,102749.81
2022-08-09T10:09:23.242Z,102751.31
2022-08-09T10:12:14.678Z,102749.47
2022-08-09T10:14:49.285Z,102748.28
2022-08-09T10:17:39.930Z,102745.47
2022-08-09T10:20:26.938Z,102743.22
2022-08-09T10:23:13.488Z,102744.09
2022-08-09T10:26:07.297Z,102739.06
2022-08-09T10:28:32.865Z,102733.28
2022-08-09T10:34:10.277Z,102740.66
2022-08-09T10:36:33.327Z,102736.31
2022-08-09T10:39:02.221Z,102727.75
2022-08-09T10:41:28.678Z,102729.66
2022-08-09T10:44:00.000Z,102726.31
2022-08-09T10:47:20.482Z,102718.78
2022-08-09T10:50:31.267Z,102720.50
2022-08-09T10:53:19.412Z,102721.78
2022-08-09T10:55:58.714Z,102715.97
2022-08-09T10:58:34.717Z,102709.47
2022-08-09T11:03:02.060Z,102703.84
2022-08-09T11:04:19.751Z,102705.78
2022-08-09T11:07:00.319Z,102690.47
2022-08-09T11:09:41.048Z,102703.09
2022-08-09T11:12:18.706Z,102691.09
2022-08-09T11:14:57.391Z,102699.78
2022-08-09T11:17:24.427Z,102688.75
2022-08-09T11:20:12.155Z,102699.13
2022-08-09T11:22:47.176Z,102693.44
2022-08-09T11:25:44.935Z,102695.78
2022-08-09T11:28:54.045Z,102693.22
2022-08-09T11:31:49.189Z,102692.88
2022-08-09T11:34:24.479Z,102692.84
2022-08-09T11:36:51.887Z,102690.34
2022-08-09T11:39:18.464Z,102682.44
2022-08-09T11:41:46.587Z,102684.06
2022-08-09T11:44:15.402Z,102671.13
2022-08-09T11:46:57.482Z,102674.00
2022-08-09T11:50:53.409Z,102673.47
2022-08-09T11:53:16.368Z,102667.28
2022-08-09T11:55:51.929Z,102659.47
2022-08-09T11:58:19.684Z,102654.50
2022-08-09T12:01:09.037Z,102651.84
2022-08-09T12:03:55.267Z,102656.41
2022-08-09T12:06:32.505Z,102650.88
2022-08-09T12:09:15.229Z,102643.75
2022-08-09T12:12:02.938Z,102651.44
2022-08-09T12:14:36.961Z,102637.94
2022-08-09T12:17:34.733Z,102634.91
2022-08-09T12:20:21.938Z,102637.75
2022-08-09T12:22:56.944Z,102638.25
2022-08-09T12:25:31.874Z,102637.69
2022-08-09T12:28:58.678Z,102638.50
2022-08-09T12:31:11.350Z,102640.19
2022-08-09T12:33:58.948Z,102631.75
2022-08-09T12:36:31.254Z,102629.97
2022-08-09T12:38:59.489Z,102616.75
2022-08-09T12:41:38.333Z,102624.31
2022-08-09T12:44:10.141Z,102628.03
2022-08-09T12:46:43.059Z,102619.91
2022-08-09T12:49:10.445Z,102618.94
2022-08-09T12:52:01.203Z,102627.28
2022-08-09T12:54:24.584Z,102621.28
2022-08-09T12:56:54.338Z,102625.28
2022-08-09T12:59:23.424Z,102627.06
2022-08-09T13:01:58.979Z,102627.38
2022-08-09T13:04:36.319Z,102623.22
2022-08-09T13:07:19.705Z,102623.69
2022-08-09T13:09:55.807Z,102628.88
2022-08-09T13:12:29.179Z,102634.19
2022-08-09T13:15:08.430Z,102623.50
2022-08-09T13:18:03.642Z,102615.34
2022-08-09T13:20:37.678Z,102630.88
2022-08-09T13:24:17.459Z,102623.88
2022-08-09T13:26:10.057Z,102624.50
2022-08-09T13:28:39.423Z,102617.16
2022-08-09T13:32:16.645Z,102619.88
2022-08-09T13:33:56.677Z,102611.59
2022-08-09T13:36:41.110Z,102616.84
2022-08-09T13:41:54.736Z,102613.66
2022-08-09T13:42:12.703Z,102626.06
2022-08-09T13:44:43.703Z,102607.28
2022-08-09T13:47:25.354Z,102614.47
2022-08-09T13:50:04.637Z,102610.22
2022-08-09T13:52:39.053Z,102609.56
2022-08-09T13:55:13.494Z,102619.50
2022-08-09T13:57:47.295Z,102620.94
2022-08-09T14:00:23.006Z,102617.69
2022-08-09T14:03:03.485Z,102611.91
2022-08-09T14:06:00.133Z,102613.03
2022-08-09T14:08:30.439Z,102609.13
2022-08-09T14:10:59.383Z,102607.28
2022-08-09T14:14:14.817Z,102608.59
2022-08-09T14:16:16.394Z,102601.63
2022-08-09T14:18:45.785Z,102609.78
2022-08-09T14:21:21.040Z,102609.88
2022-08-09T14:23:55.176Z,102614.28
2022-08-09T14:26:32.720Z,102604.34
2022-08-09T14:29:25.864Z,102600.19
2022-08-09T14:31:55.603Z,102609.22
2022-08-09T14:34:31.724Z,102608.88
2022-08-09T14:37:06.462Z,102621.59
2022-08-09T14:39:45.743Z,102616.88
2022-08-09T14:42:30.469Z,102624.78
2022-08-09T14:46:55.115Z,102620.63
2022-08-09T14:47:57.820Z,102618.78
2022-08-09T14:50:26.944Z,102626.63
2022-08-09T14:52:53.601Z,102618.88
2022-08-09T14:55:21.238Z,102620.63
2022-08-09T14:57:49.245Z,102619.00
2022-08-09T15:00:16.701Z,102626.00
2022-08-09T15:02:47.455Z,102623.41
2022-08-09T15:05:18.678Z,102619.47
2022-08-09T15:07:45.397Z,102620.22
2022-08-09T15:10:21.780Z,102615.31
2022-08-09T15:12:52.095Z,102613.13
2022-08-09T15:15:18.638Z,102611.91
2022-08-09T15:17:51.764Z,102607.13
2022-08-09T15:21:58.054Z,102606.97
2022-08-09T15:23:56.022Z,102607.47
2022-08-09T15:25:53.697Z,102603.59
2022-08-09T15:28:27.740Z,102609.53
2022-08-09T15:31:01.360Z,102608.28
2022-08-09T15:34:33.579Z,102605.09
2022-08-09T15:36:28.451Z,102604.56
2022-08-09T15:38:57.184Z,102606.25
2022-08-09T15:41:31.785Z,102610.59
2022-08-09T15:44:00.306Z,102599.94
2022-08-09T15:46:33.428Z,102601.38
2022-08-09T15:49:22.054Z,102593.31
2022-08-09T15:52:03.323Z,102599.81
2022-08-09T15:54:44.778Z,102599.38
2022-08-09T15:57:35.966Z,102595.53
2022-08-09T16:00:11.018Z,102600.50
2022-08-09T16:02:53.742Z,102597.19
2022-08-09T16:05:22.414Z,102591.03
2022-08-09T16:07:50.471Z,102593.84
2022-08-09T16:10:56.234Z,102598.94
2022-08-09T16:13:04.806Z,102596.66
2022-08-09T16:16:04.454Z,102589.06
2022-08-09T16:18:32.295Z,102589.34
2022-08-09T16:20:59.193Z,102584.31
2022-08-09T16:23:26.379Z,102585.63
2022-08-09T16:25:54.683Z,102587.25
2022-08-09T16:28:28.999Z,102581.22
2022-08-09T16:30:58.980Z,102584.31
2022-08-09T16:33:26.661Z,102585.38
2022-08-09T16:35:58.422Z,102576.13
2022-08-09T16:38:27.425Z,102572.13
2022-08-09T16:40:54.022Z,102588.88
2022-08-09T16:43:22.247Z,102588.19
2022-08-09T16:45:53.511Z,102589.06
2022-08-09T16:48:50.483Z,102581.34
2022-08-09T16:51:14.370Z,102582.69
2022-08-09T16:54:08.875Z,102590.19
2022-08-09T16:56:31.639Z,102586.66
2022-08-09T16:58:59.334Z,102586.88
2022-08-09T17:01:28.164Z,102596.13
2022-08-09T17:04:00.210Z,102596.34
2022-08-09T17:06:29.380Z,102596.53
2022-08-09T17:09:11.821Z,102602.88
2022-08-09T17:11:51.398Z,102604.22
2022-08-09T17:14:27.377Z,102612.69
2022-08-09T17:16:56.965Z,102613.00
2022-08-09T17:19:27.617Z,102609.56
2022-08-09T17:22:14.228Z,102613.47
2022-08-09T17:24:41.495Z,102615.91
2022-08-09T17:27:15.125Z,102621.47
2022-08-09T17:29:45.540Z,102626.16
2022-08-09T17:32:15.857Z,102623.56
2022-08-09T17:35:07.302Z,102625.59
2022-08-09T17:38:12.577Z,102616.97
2022-08-09T17:40:21.774Z,102617.25
2022-08-09T17:42:55.743Z,102626.31
2022-08-09T17:45:37.431Z,102628.53
2022-08-09T17:48:12.346Z,102627.09
2022-08-09T17:50:38.727Z,102625.66
2022-08-09T17:53:19.719Z,102622.22
2022-08-09T17:55:51.976Z,102630.25
2022-08-09T17:58:26.791Z,102626.03
2022-08-09T18:00:56.638Z,102635.25
2022-08-09T18:03:24.943Z,102635.50
2022-08-09T18:05:53.261Z,102638.47
2022-08-09T18:08:21.849Z,102646.03
2022-08-09T18:11:00.999Z,102647.16
2022-08-09T18:13:43.000Z,102646.59
2022-08-09T18:16:16.382Z,102652.22
2022-08-09T18:18:49.186Z,102653.25
2022-08-09T18:21:23.038Z,102651.69
2022-08-09T18:24:12.605Z,102655.41
2022-08-09T18:26:38.117Z,102651.97
2022-08-09T18:30:35.188Z,102653.19
2022-08-09T18:31:55.635Z,102656.16
2022-08-09T18:34:23.873Z,102651.03
2022-08-09T18:36:50.910Z,102652.25
2022-08-09T18:39:22.252Z,102658.66
2022-08-09T18:41:52.969Z,102657.13
2022-08-09T18:44:22.908Z,102661.88
2022-08-09T18:47:04.956Z,102657.63
2022-08-09T18:49:41.479Z,102665.94
2022-08-09T18:52:11.708Z,102658.25
2022-08-09T18:54:39.265Z,102662.16
2022-08-09T18:57:15.412Z,102664.25
2022-08-09T18:59:49.156Z,102662.66
2022-08-09T19:02:30.407Z,102647.72
2022-08-09T19:05:14.453Z,102655.91
2022-08-09T19:07:59.100Z,102651.59
2022-08-09T19:10:36.948Z,102652.75
2022-08-09T19:13:23.457Z,102652.97
2022-08-09T19:15:56.285Z,102656.69
2022-08-09T19:18:36.317Z,102662.38
2022-08-09T19:21:09.771Z,102666.97
2022-08-09T19:24:32.870Z,102659.19
2022-08-09T19:26:34.923Z,102661.31
2022-08-09T19:29:15.175Z,102663.41
2022-08-09T19:31:45.627Z,102662.69
2022-08-09T19:34:21.409Z,102662.09
2022-08-09T19:36:53.748Z,102673.97
2022-08-09T19:39:29.091Z,102677.69
2022-08-09T19:42:08.255Z,102674.28
2022-08-09T19:44:35.324Z,102682.47
2022-08-09T19:47:02.658Z,102690.72
2022-08-09T19:50:09.217Z,102686.38
2022-08-09T19:52:18.308Z,102686.38
2022-08-09T19:54:44.990Z,102687.44
2022-08-09T19:57:11.394Z,102694.72
2022-08-09T19:59:58.858Z,102694.97
2022-08-09T20:04:11.676Z,102691.59
2022-08-09T20:05:14.850Z,102696.31
2022-08-09T20:07:59.760Z,102697.41
2022-08-09T20:10:36.588Z,102705.50
2022-08-09T20:13:05.516Z,102714.66
2022-08-09T20:16:38.492Z,102712.19
2022-08-09T20:18:19.730Z,102713.22
2022-08-09T20:20:47.085Z,102712.66
2022-08-09T20:23:13.581Z,102712.09
2022-08-09T20:25:52.868Z,102711.50
2022-08-09T20:28:27.803Z,102722.31
2022-08-09T20:31:04.881Z,102711.91
2022-08-09T20:33:39.287Z,102715.69
2022-08-09T20:36:10.800Z,102721.16
2022-08-09T20:41:32.150Z,102717.19
2022-08-09T20:44:02.558Z,102723.66
2022-08-09T20:46:33.845Z,102717.66
2022-08-09T20:49:10.340Z,102714.38
2022-08-09T20:51:41.195Z,102717.31
2022-08-09T20:54:12.752Z,102712.19
2022-08-09T20:56:47.320Z,102718.53
2022-08-09T20:59:17.692Z,102713.38
2022-08-09T21:01:53.726Z,102716.09
2022-08-09T21:05:51.660Z,102717.25
2022-08-09T21:07:11.273Z,102715.75
2022-08-09T21:09:56.808Z,102714.16
2022-08-09T21:15:14.025Z,102708.19
2022-08-09T21:18:23.417Z,102719.94
2022-08-09T21:20:29.812Z,102720.91
2022-08-09T21:22:57.450Z,102730.00
2022-08-09T21:25:44.040Z,102729.25
2022-08-09T21:28:34.247Z,102726.81
2022-08-09T21:31:16.269Z,102730.59
2022-08-09T21:33:46.151Z,102735.22
2022-08-09T21:36:17.609Z,102738.00
2022-08-09T21:38:45.454Z,102739.94
2022-08-09T21:41:17.714Z,102740.97
2022-08-09T21:43:56.269Z,102736.69
2022-08-09T21:46:24.849Z,102736.84
2022-08-09T21:48:52.304Z,102733.44
2022-08-09T21:51:24.554Z,102726.44
2022-08-09T21:54:03.367Z,102734.50
2022-08-09T21:56:42.771Z,102724.03
2022-08-09T22:01:59.220Z,102732.44
2022-08-09T22:04:23.185Z,102731.66
2022-08-09T22:07:09.907Z,102737.09
2022-08-09T22:09:38.686Z,102738.19
2022-08-09T22:12:18.339Z,102723.31
2022-08-09T22:14:45.874Z,102728.78
2022-08-09T22:17:13.303Z,102720.94
2022-08-09T22:19:58.416Z,102727.25
2022-08-09T22:22:26.496Z,102728.28
2022-08-09T22:26:03.912Z,102735.59
2022-08-09T22:27:39.436Z,102727.69
2022-08-09T22:30:07.626Z,102727.84
2022-08-09T22:32:34.655Z,102735.03
2022-08-09T22:35:06.061Z,102728.06
2022-08-09T22:37:35.721Z,102725.59
2022-08-09T22:40:08.370Z,102724.84
2022-08-09T22:42:34.979Z,102725.84
2022-08-09T22:48:06.177Z,102728.63
2022-08-09T22:48:12.119Z,102726.97
2022-08-09T22:50:34.551Z,102726.19
2022-08-09T22:53:03.520Z,102721.81
2022-08-09T22:56:06.150Z,102728.22
2022-08-09T22:58:30.575Z,102726.47
2022-08-09T23:01:02.116Z,102732.84
2022-08-09T23:04:02.562Z,102722.34
2022-08-09T23:06:32.737Z,102714.47
2022-08-09T23:09:03.895Z,102715.47
2022-08-09T23:11:30.331Z,102720.91
2022-08-09T23:13:56.783Z,102712.19
2022-08-09T23:16:23.460Z,102711.44
2022-08-09T23:18:49.971Z,102707.13
2022-08-09T23:21:24.564Z,102712.53
2022-08-09T23:24:05.646Z,102708.28
2022-08-09T23:26:35.462Z,102712.81
2022-08-09T23:29:01.957Z,102712.00
2022-08-09T23:31:28.387Z,102705.97
2022-08-09T23:33:54.867Z,102714.97
2022-08-09T23:36:21.510Z,102709.84
2022-08-09T23:38:49.185Z,102714.34
2022-08-09T23:41:29.120Z,102714.34
2022-08-09T23:44:00.668Z,102717.94
2022-08-09T23:46:28.875Z,102718.91
2022-08-09T23:48:55.756Z,102719.00
2022-08-09T23:51:22.336Z,102720.84
2022-08-09T23:53:50.375Z,102726.19
2022-08-09T23:56:19.302Z,102721.81
2022-08-09T23:59:05.569Z,102722.72
